sensor_id;sensor_type;location;lat;lon;timestamp;P1;durP1;ratioP1;P2;durP2;ratioP2
61806;SDS011;47726;52.766;6.606;2023-04-24T00:00:17;1.70;;;1.60;;
61806;SDS011;47726;52.766;6.606;2023-04-24T00:02:43;1.92;;;1.60;;
61806;SDS011;47726;52.766;6.606;2023-04-24T00:05:16;2.05;;;1.65;;
61806;SDS011;47726;52.766;6.606;2023-04-24T00:07:45;1.80;;;1.70;;
61806;SDS011;47726;52.766;6.606;2023-04-24T00:10:11;1.90;;;1.80;;
61806;SDS011;47726;52.766;6.606;2023-04-24T00:12:37;1.80;;;1.70;;
61806;SDS011;47726;52.766;6.606;2023-04-24T00:15:03;1.80;;;1.70;;
61806;SDS011;47726;52.766;6.606;2023-04-24T00:17:30;1.90;;;1.80;;
61806;SDS011;47726;52.766;6.606;2023-04-24T00:19:55;2.10;;;2.00;;
61806;SDS011;47726;52.766;6.606;2023-04-24T00:22:27;2.30;;;2.10;;
61806;SDS011;47726;52.766;6.606;2023-04-24T00:24:53;2.50;;;2.30;;
61806;SDS011;47726;52.766;6.606;2023-04-24T00:27:19;2.60;;;2.40;;
61806;SDS011;47726;52.766;6.606;2023-04-24T00:29:45;2.50;;;2.40;;
61806;SDS011;47726;52.766;6.606;2023-04-24T00:32:11;2.70;;;2.45;;
61806;SDS011;47726;52.766;6.606;2023-04-24T00:34:36;2.83;;;2.63;;
61806;SDS011;47726;52.766;6.606;2023-04-24T00:37:02;3.15;;;2.83;;
61806;SDS011;47726;52.766;6.606;2023-04-24T00:39:28;3.00;;;2.70;;
61806;SDS011;47726;52.766;6.606;2023-04-24T00:41:53;3.55;;;3.25;;
61806;SDS011;47726;52.766;6.606;2023-04-24T00:44:20;3.50;;;3.20;;
61806;SDS011;47726;52.766;6.606;2023-04-24T00:46:46;3.67;;;3.38;;
61806;SDS011;47726;52.766;6.606;2023-04-24T00:49:12;4.18;;;3.78;;
61806;SDS011;47726;52.766;6.606;2023-04-24T00:51:38;4.40;;;4.00;;
61806;SDS011;47726;52.766;6.606;2023-04-24T00:54:05;4.35;;;3.95;;
61806;SDS011;47726;52.766;6.606;2023-04-24T00:56:31;4.78;;;4.38;;
61806;SDS011;47726;52.766;6.606;2023-04-24T00:58:57;4.88;;;4.47;;
61806;SDS011;47726;52.766;6.606;2023-04-24T01:01:23;4.80;;;4.40;;
61806;SDS011;47726;52.766;6.606;2023-04-24T01:03:49;4.28;;;3.97;;
61806;SDS011;47726;52.766;6.606;2023-04-24T01:06:16;3.50;;;3.20;;
61806;SDS011;47726;52.766;6.606;2023-04-24T01:08:42;3.00;;;2.70;;
61806;SDS011;47726;52.766;6.606;2023-04-24T01:11:10;2.70;;;2.50;;
61806;SDS011;47726;52.766;6.606;2023-04-24T01:13:36;2.78;;;2.58;;
61806;SDS011;47726;52.766;6.606;2023-04-24T01:16:01;2.70;;;2.50;;
61806;SDS011;47726;52.766;6.606;2023-04-24T01:18:27;2.80;;;2.60;;
61806;SDS011;47726;52.766;6.606;2023-04-24T01:20:53;2.80;;;2.60;;
61806;SDS011;47726;52.766;6.606;2023-04-24T01:23:23;3.35;;;2.70;;
61806;SDS011;47726;52.766;6.606;2023-04-24T01:25:48;2.70;;;2.50;;
61806;SDS011;47726;52.766;6.606;2023-04-24T01:28:15;2.70;;;2.53;;
61806;SDS011;47726;52.766;6.606;2023-04-24T01:30:41;2.80;;;2.60;;
61806;SDS011;47726;52.766;6.606;2023-04-24T01:33:07;3.00;;;2.80;;
61806;SDS011;47726;52.766;6.606;2023-04-24T01:35:33;3.00;;;2.80;;
61806;SDS011;47726;52.766;6.606;2023-04-24T01:38:01;3.20;;;3.00;;
61806;SDS011;47726;52.766;6.606;2023-04-24T01:40:26;3.22;;;3.03;;
61806;SDS011;47726;52.766;6.606;2023-04-24T01:42:52;3.50;;;3.30;;
61806;SDS011;47726;52.766;6.606;2023-04-24T01:45:18;3.60;;;3.20;;
61806;SDS011;47726;52.766;6.606;2023-04-24T01:47:43;4.07;;;3.40;;
61806;SDS011;47726;52.766;6.606;2023-04-24T01:50:11;3.58;;;3.28;;
61806;SDS011;47726;52.766;6.606;2023-04-24T01:52:36;3.97;;;3.58;;
61806;SDS011;47726;52.766;6.606;2023-04-24T01:55:03;3.80;;;3.50;;
61806;SDS011;47726;52.766;6.606;2023-04-24T01:57:29;3.88;;;3.40;;
61806;SDS011;47726;52.766;6.606;2023-04-24T01:59:56;4.63;;;3.80;;
61806;SDS011;47726;52.766;6.606;2023-04-24T02:02:21;4.18;;;3.88;;
61806;SDS011;47726;52.766;6.606;2023-04-24T02:04:49;4.28;;;3.88;;
61806;SDS011;47726;52.766;6.606;2023-04-24T02:07:15;5.03;;;3.78;;
61806;SDS011;47726;52.766;6.606;2023-04-24T02:09:41;4.35;;;4.05;;
61806;SDS011;47726;52.766;6.606;2023-04-24T02:12:06;4.93;;;4.43;;
61806;SDS011;47726;52.766;6.606;2023-04-24T02:14:32;5.10;;;4.60;;
61806;SDS011;47726;52.766;6.606;2023-04-24T02:16:58;5.35;;;4.85;;
61806;SDS011;47726;52.766;6.606;2023-04-24T02:19:23;5.85;;;5.03;;
61806;SDS011;47726;52.766;6.606;2023-04-24T02:21:49;5.50;;;5.00;;
61806;SDS011;47726;52.766;6.606;2023-04-24T02:24:14;5.60;;;5.05;;
61806;SDS011;47726;52.766;6.606;2023-04-24T02:26:40;5.85;;;5.35;;
61806;SDS011;47726;52.766;6.606;2023-04-24T02:29:06;7.03;;;5.60;;
61806;SDS011;47726;52.766;6.606;2023-04-24T02:31:32;6.20;;;5.15;;
61806;SDS011;47726;52.766;6.606;2023-04-24T02:33:57;6.30;;;5.40;;
61806;SDS011;47726;52.766;6.606;2023-04-24T02:36:23;5.85;;;5.20;;
61806;SDS011;47726;52.766;6.606;2023-04-24T02:38:48;5.60;;;5.05;;
61806;SDS011;47726;52.766;6.606;2023-04-24T02:41:14;7.00;;;5.38;;
61806;SDS011;47726;52.766;6.606;2023-04-24T02:43:39;5.82;;;5.22;;
61806;SDS011;47726;52.766;6.606;2023-04-24T02:46:05;6.03;;;5.40;;
61806;SDS011;47726;52.766;6.606;2023-04-24T02:48:30;6.30;;;5.70;;
61806;SDS011;47726;52.766;6.606;2023-04-24T02:50:56;5.93;;;5.43;;
61806;SDS011;47726;52.766;6.606;2023-04-24T02:53:22;6.03;;;5.45;;
61806;SDS011;47726;52.766;6.606;2023-04-24T02:55:48;5.43;;;4.93;;
61806;SDS011;47726;52.766;6.606;2023-04-24T02:58:14;6.72;;;5.65;;
61806;SDS011;47726;52.766;6.606;2023-04-24T03:00:40;6.10;;;5.60;;
61806;SDS011;47726;52.766;6.606;2023-04-24T03:03:06;5.63;;;5.10;;
61806;SDS011;47726;52.766;6.606;2023-04-24T03:05:32;7.10;;;5.60;;
61806;SDS011;47726;52.766;6.606;2023-04-24T03:07:57;6.35;;;5.10;;
61806;SDS011;47726;52.766;6.606;2023-04-24T03:10:23;6.10;;;5.50;;
61806;SDS011;47726;52.766;6.606;2023-04-24T03:12:49;6.13;;;5.53;;
61806;SDS011;47726;52.766;6.606;2023-04-24T03:15:15;5.93;;;5.40;;
61806;SDS011;47726;52.766;6.606;2023-04-24T03:17:40;6.03;;;5.43;;
61806;SDS011;47726;52.766;6.606;2023-04-24T03:20:06;5.95;;;5.35;;
61806;SDS011;47726;52.766;6.606;2023-04-24T03:22:34;6.30;;;5.70;;
61806;SDS011;47726;52.766;6.606;2023-04-24T03:24:59;6.15;;;5.55;;
61806;SDS011;47726;52.766;6.606;2023-04-24T03:27:25;5.82;;;5.32;;
61806;SDS011;47726;52.766;6.606;2023-04-24T03:29:51;6.70;;;5.53;;
61806;SDS011;47726;52.766;6.606;2023-04-24T03:32:20;6.25;;;5.60;;
61806;SDS011;47726;52.766;6.606;2023-04-24T03:34:46;8.30;;;5.75;;
61806;SDS011;47726;52.766;6.606;2023-04-24T03:37:11;6.30;;;5.70;;
61806;SDS011;47726;52.766;6.606;2023-04-24T03:39:37;5.97;;;5.47;;
61806;SDS011;47726;52.766;6.606;2023-04-24T03:42:03;6.80;;;6.10;;
61806;SDS011;47726;52.766;6.606;2023-04-24T03:44:28;7.38;;;5.63;;
61806;SDS011;47726;52.766;6.606;2023-04-24T03:46:54;6.30;;;5.70;;
61806;SDS011;47726;52.766;6.606;2023-04-24T03:49:19;7.43;;;5.75;;
61806;SDS011;47726;52.766;6.606;2023-04-24T03:51:45;6.95;;;5.70;;
61806;SDS011;47726;52.766;6.606;2023-04-24T03:54:11;9.48;;;5.72;;
61806;SDS011;47726;52.766;6.606;2023-04-24T03:56:37;6.82;;;6.07;;
61806;SDS011;47726;52.766;6.606;2023-04-24T03:59:03;8.25;;;6.25;;
61806;SDS011;47726;52.766;6.606;2023-04-24T04:01:28;7.20;;;6.50;;
61806;SDS011;47726;52.766;6.606;2023-04-24T04:03:55;7.13;;;6.43;;
61806;SDS011;47726;52.766;6.606;2023-04-24T04:06:21;8.70;;;6.95;;
61806;SDS011;47726;52.766;6.606;2023-04-24T04:08:47;7.30;;;6.60;;
61806;SDS011;47726;52.766;6.606;2023-04-24T04:11:12;7.85;;;7.05;;
61806;SDS011;47726;52.766;6.606;2023-04-24T04:13:38;9.07;;;7.47;;
61806;SDS011;47726;52.766;6.606;2023-04-24T04:16:03;8.18;;;7.00;;
61806;SDS011;47726;52.766;6.606;2023-04-24T04:18:29;7.75;;;6.82;;
61806;SDS011;47726;52.766;6.606;2023-04-24T04:20:55;8.23;;;7.30;;
61806;SDS011;47726;52.766;6.606;2023-04-24T04:23:22;8.18;;;7.38;;
61806;SDS011;47726;52.766;6.606;2023-04-24T04:25:47;8.48;;;7.10;;
61806;SDS011;47726;52.766;6.606;2023-04-24T04:28:13;8.50;;;6.80;;
61806;SDS011;47726;52.766;6.606;2023-04-24T04:30:40;7.45;;;6.55;;
61806;SDS011;47726;52.766;6.606;2023-04-24T04:33:06;7.38;;;6.45;;
61806;SDS011;47726;52.766;6.606;2023-04-24T04:35:33;7.43;;;6.63;;
61806;SDS011;47726;52.766;6.606;2023-04-24T04:37:58;7.10;;;5.80;;
61806;SDS011;47726;52.766;6.606;2023-04-24T04:40:24;6.90;;;5.97;;
61806;SDS011;47726;52.766;6.606;2023-04-24T04:42:50;5.80;;;4.97;;
61806;SDS011;47726;52.766;6.606;2023-04-24T04:45:18;5.85;;;4.90;;
61806;SDS011;47726;52.766;6.606;2023-04-24T04:47:45;5.47;;;4.60;;
61806;SDS011;47726;52.766;6.606;2023-04-24T04:50:11;5.57;;;5.00;;
61806;SDS011;47726;52.766;6.606;2023-04-24T04:52:36;5.90;;;4.50;;
61806;SDS011;47726;52.766;6.606;2023-04-24T04:55:02;5.43;;;4.70;;
61806;SDS011;47726;52.766;6.606;2023-04-24T04:57:28;4.90;;;4.40;;
61806;SDS011;47726;52.766;6.606;2023-04-24T04:59:53;6.65;;;4.65;;
61806;SDS011;47726;52.766;6.606;2023-04-24T05:02:19;6.00;;;5.22;;
61806;SDS011;47726;52.766;6.606;2023-04-24T05:04:45;6.07;;;5.10;;
61806;SDS011;47726;52.766;6.606;2023-04-24T05:07:11;5.18;;;4.68;;
61806;SDS011;47726;52.766;6.606;2023-04-24T05:09:36;6.28;;;5.50;;
61806;SDS011;47726;52.766;6.606;2023-04-24T05:12:02;6.72;;;5.55;;
61806;SDS011;47726;52.766;6.606;2023-04-24T05:14:28;5.90;;;4.50;;
61806;SDS011;47726;52.766;6.606;2023-04-24T05:16:54;5.65;;;5.05;;
61806;SDS011;47726;52.766;6.606;2023-04-24T05:19:19;5.50;;;4.88;;
61806;SDS011;47726;52.766;6.606;2023-04-24T05:21:45;5.85;;;5.20;;
61806;SDS011;47726;52.766;6.606;2023-04-24T05:24:10;5.97;;;5.10;;
61806;SDS011;47726;52.766;6.606;2023-04-24T05:26:36;5.80;;;5.20;;
61806;SDS011;47726;52.766;6.606;2023-04-24T05:29:02;5.35;;;4.35;;
61806;SDS011;47726;52.766;6.606;2023-04-24T05:31:29;5.30;;;4.72;;
61806;SDS011;47726;52.766;6.606;2023-04-24T05:33:54;5.60;;;4.47;;
61806;SDS011;47726;52.766;6.606;2023-04-24T05:36:20;5.38;;;4.55;;
61806;SDS011;47726;52.766;6.606;2023-04-24T05:38:45;4.80;;;4.30;;
61806;SDS011;47726;52.766;6.606;2023-04-24T05:41:11;5.85;;;4.90;;
61806;SDS011;47726;52.766;6.606;2023-04-24T05:43:36;4.50;;;4.10;;
61806;SDS011;47726;52.766;6.606;2023-04-24T05:46:02;4.32;;;3.75;;
61806;SDS011;47726;52.766;6.606;2023-04-24T05:48:28;4.78;;;3.97;;
61806;SDS011;47726;52.766;6.606;2023-04-24T05:50:53;4.70;;;4.00;;
61806;SDS011;47726;52.766;6.606;2023-04-24T05:53:19;4.32;;;3.70;;
61806;SDS011;47726;52.766;6.606;2023-04-24T05:55:44;4.28;;;3.88;;
61806;SDS011;47726;52.766;6.606;2023-04-24T05:58:11;4.93;;;4.03;;
61806;SDS011;47726;52.766;6.606;2023-04-24T06:00:37;4.22;;;3.83;;
61806;SDS011;47726;52.766;6.606;2023-04-24T06:03:04;4.63;;;3.47;;
61806;SDS011;47726;52.766;6.606;2023-04-24T06:05:30;3.20;;;2.90;;
61806;SDS011;47726;52.766;6.606;2023-04-24T06:07:56;3.10;;;2.80;;
61806;SDS011;47726;52.766;6.606;2023-04-24T06:10:21;2.97;;;2.78;;
61806;SDS011;47726;52.766;6.606;2023-04-24T06:12:47;2.80;;;2.60;;
61806;SDS011;47726;52.766;6.606;2023-04-24T06:15:13;3.30;;;3.00;;
61806;SDS011;47726;52.766;6.606;2023-04-24T06:17:38;2.67;;;2.47;;
61806;SDS011;47726;52.766;6.606;2023-04-24T06:20:04;2.60;;;2.40;;
61806;SDS011;47726;52.766;6.606;2023-04-24T06:22:31;2.70;;;2.50;;
61806;SDS011;47726;52.766;6.606;2023-04-24T06:24:57;2.30;;;2.10;;
61806;SDS011;47726;52.766;6.606;2023-04-24T06:27:22;2.50;;;2.30;;
61806;SDS011;47726;52.766;6.606;2023-04-24T06:29:48;2.40;;;2.20;;
61806;SDS011;47726;52.766;6.606;2023-04-24T06:32:20;3.35;;;2.30;;
61806;SDS011;47726;52.766;6.606;2023-04-24T06:34:47;3.30;;;2.80;;
61806;SDS011;47726;52.766;6.606;2023-04-24T06:37:12;3.90;;;3.10;;
61806;SDS011;47726;52.766;6.606;2023-04-24T06:39:39;3.50;;;3.20;;
61806;SDS011;47726;52.766;6.606;2023-04-24T06:42:04;4.85;;;3.67;;
61806;SDS011;47726;52.766;6.606;2023-04-24T06:44:30;5.18;;;4.25;;
61806;SDS011;47726;52.766;6.606;2023-04-24T06:46:55;5.93;;;4.60;;
61806;SDS011;47726;52.766;6.606;2023-04-24T06:49:21;5.07;;;4.13;;
61806;SDS011;47726;52.766;6.606;2023-04-24T06:51:47;6.55;;;4.40;;
61806;SDS011;47726;52.766;6.606;2023-04-24T06:54:12;5.38;;;4.18;;
61806;SDS011;47726;52.766;6.606;2023-04-24T06:56:38;6.07;;;4.15;;
61806;SDS011;47726;52.766;6.606;2023-04-24T06:59:03;4.55;;;3.58;;
61806;SDS011;47726;52.766;6.606;2023-04-24T07:01:29;2.95;;;2.75;;
61806;SDS011;47726;52.766;6.606;2023-04-24T07:03:54;2.85;;;2.60;;
61806;SDS011;47726;52.766;6.606;2023-04-24T07:06:20;4.10;;;2.70;;
61806;SDS011;47726;52.766;6.606;2023-04-24T07:08:47;4.47;;;3.22;;
61806;SDS011;47726;52.766;6.606;2023-04-24T07:11:13;6.28;;;3.65;;
61806;SDS011;47726;52.766;6.606;2023-04-24T07:13:39;6.38;;;4.00;;
61806;SDS011;47726;52.766;6.606;2023-04-24T07:16:07;4.88;;;3.70;;
61806;SDS011;47726;52.766;6.606;2023-04-24T07:18:33;5.28;;;3.90;;
61806;SDS011;47726;52.766;6.606;2023-04-24T07:21:00;5.57;;;3.90;;
61806;SDS011;47726;52.766;6.606;2023-04-24T07:23:25;5.50;;;4.38;;
61806;SDS011;47726;52.766;6.606;2023-04-24T07:25:51;7.00;;;4.50;;
61806;SDS011;47726;52.766;6.606;2023-04-24T07:28:17;6.90;;;4.63;;
61806;SDS011;47726;52.766;6.606;2023-04-24T07:30:43;5.38;;;4.50;;
61806;SDS011;47726;52.766;6.606;2023-04-24T07:33:08;8.63;;;4.18;;
61806;SDS011;47726;52.766;6.606;2023-04-24T07:35:36;5.28;;;3.80;;
61806;SDS011;47726;52.766;6.606;2023-04-24T07:38:01;5.22;;;4.00;;
61806;SDS011;47726;52.766;6.606;2023-04-24T07:40:27;5.57;;;4.30;;
61806;SDS011;47726;52.766;6.606;2023-04-24T07:42:53;6.60;;;4.63;;
61806;SDS011;47726;52.766;6.606;2023-04-24T07:45:18;9.70;;;5.28;;
61806;SDS011;47726;52.766;6.606;2023-04-24T07:47:44;7.47;;;4.80;;
61806;SDS011;47726;52.766;6.606;2023-04-24T07:50:10;7.75;;;5.13;;
61806;SDS011;47726;52.766;6.606;2023-04-24T07:52:37;6.65;;;5.00;;
61806;SDS011;47726;52.766;6.606;2023-04-24T07:55:03;6.63;;;4.88;;
61806;SDS011;47726;52.766;6.606;2023-04-24T07:57:29;7.50;;;4.80;;
61806;SDS011;47726;52.766;6.606;2023-04-24T07:59:55;8.02;;;4.53;;
61806;SDS011;47726;52.766;6.606;2023-04-24T08:02:21;7.07;;;4.10;;
61806;SDS011;47726;52.766;6.606;2023-04-24T08:04:51;6.13;;;4.20;;
61806;SDS011;47726;52.766;6.606;2023-04-24T08:07:18;5.38;;;4.32;;
61806;SDS011;47726;52.766;6.606;2023-04-24T08:09:44;6.10;;;4.43;;
61806;SDS011;47726;52.766;6.606;2023-04-24T08:12:10;6.50;;;4.38;;
61806;SDS011;47726;52.766;6.606;2023-04-24T08:14:35;6.65;;;4.20;;
61806;SDS011;47726;52.766;6.606;2023-04-24T08:17:01;6.82;;;3.80;;
61806;SDS011;47726;52.766;6.606;2023-04-24T08:19:27;4.57;;;3.67;;
61806;SDS011;47726;52.766;6.606;2023-04-24T08:21:53;5.15;;;3.30;;
61806;SDS011;47726;52.766;6.606;2023-04-24T08:24:18;5.28;;;3.28;;
61806;SDS011;47726;52.766;6.606;2023-04-24T08:26:44;6.45;;;3.28;;
61806;SDS011;47726;52.766;6.606;2023-04-24T08:29:10;3.95;;;2.85;;
61806;SDS011;47726;52.766;6.606;2023-04-24T08:31:35;5.38;;;3.10;;
61806;SDS011;47726;52.766;6.606;2023-04-24T08:34:01;6.85;;;3.50;;
61806;SDS011;47726;52.766;6.606;2023-04-24T08:36:26;6.35;;;3.75;;
61806;SDS011;47726;52.766;6.606;2023-04-24T08:38:52;6.13;;;4.22;;
61806;SDS011;47726;52.766;6.606;2023-04-24T08:41:18;9.32;;;5.18;;
61806;SDS011;47726;52.766;6.606;2023-04-24T08:43:47;10.35;;;6.20;;
61806;SDS011;47726;52.766;6.606;2023-04-24T08:46:13;12.98;;;7.10;;
61806;SDS011;47726;52.766;6.606;2023-04-24T08:48:41;11.02;;;7.47;;
61806;SDS011;47726;52.766;6.606;2023-04-24T08:51:07;10.85;;;7.30;;
61806;SDS011;47726;52.766;6.606;2023-04-24T08:53:33;12.60;;;8.40;;
61806;SDS011;47726;52.766;6.606;2023-04-24T08:56:00;12.45;;;8.20;;
61806;SDS011;47726;52.766;6.606;2023-04-24T08:58:27;15.63;;;8.25;;
61806;SDS011;47726;52.766;6.606;2023-04-24T09:00:56;13.73;;;8.45;;
61806;SDS011;47726;52.766;6.606;2023-04-24T09:03:23;14.60;;;8.30;;
61806;SDS011;47726;52.766;6.606;2023-04-24T09:05:49;15.07;;;9.05;;
61806;SDS011;47726;52.766;6.606;2023-04-24T09:08:19;15.52;;;9.73;;
61806;SDS011;47726;52.766;6.606;2023-04-24T09:10:45;17.73;;;11.23;;
61806;SDS011;47726;52.766;6.606;2023-04-24T09:13:11;19.88;;;12.23;;
61806;SDS011;47726;52.766;6.606;2023-04-24T09:15:38;20.15;;;12.90;;
61806;SDS011;47726;52.766;6.606;2023-04-24T09:18:04;20.75;;;13.73;;
61806;SDS011;47726;52.766;6.606;2023-04-24T09:20:30;21.45;;;13.45;;
61806;SDS011;47726;52.766;6.606;2023-04-24T09:22:57;20.88;;;13.85;;
61806;SDS011;47726;52.766;6.606;2023-04-24T09:25:25;23.75;;;14.93;;
61806;SDS011;47726;52.766;6.606;2023-04-24T09:28:03;21.63;;;14.68;;
61806;SDS011;47726;52.766;6.606;2023-04-24T09:30:31;21.48;;;14.05;;
61806;SDS011;47726;52.766;6.606;2023-04-24T09:33:10;18.33;;;13.32;;
61806;SDS011;47726;52.766;6.606;2023-04-24T09:35:40;22.02;;;14.45;;
61806;SDS011;47726;52.766;6.606;2023-04-24T09:38:15;19.15;;;14.23;;
61806;SDS011;47726;52.766;6.606;2023-04-24T09:40:41;25.52;;;14.25;;
61806;SDS011;47726;52.766;6.606;2023-04-24T09:43:10;21.98;;;14.20;;
61806;SDS011;47726;52.766;6.606;2023-04-24T09:45:36;20.42;;;14.00;;
61806;SDS011;47726;52.766;6.606;2023-04-24T09:48:04;21.08;;;13.25;;
61806;SDS011;47726;52.766;6.606;2023-04-24T09:50:31;19.75;;;12.02;;
61806;SDS011;47726;52.766;6.606;2023-04-24T09:52:58;16.55;;;11.60;;
61806;SDS011;47726;52.766;6.606;2023-04-24T09:55:26;19.02;;;11.63;;
61806;SDS011;47726;52.766;6.606;2023-04-24T10:00:25;18.17;;;12.27;;
61806;SDS011;47726;52.766;6.606;2023-04-24T10:02:59;19.17;;;11.73;;
61806;SDS011;47726;52.766;6.606;2023-04-24T10:05:27;18.52;;;11.77;;
61806;SDS011;47726;52.766;6.606;2023-04-24T10:08:02;15.77;;;10.10;;
61806;SDS011;47726;52.766;6.606;2023-04-24T10:10:34;16.42;;;10.30;;
61806;SDS011;47726;52.766;6.606;2023-04-24T10:13:03;18.23;;;10.60;;
61806;SDS011;47726;52.766;6.606;2023-04-24T10:15:29;21.67;;;11.00;;
61806;SDS011;47726;52.766;6.606;2023-04-24T10:20:26;16.58;;;9.80;;
61806;SDS011;47726;52.766;6.606;2023-04-24T10:22:56;14.20;;;8.88;;
61806;SDS011;47726;52.766;6.606;2023-04-24T10:25:29;17.90;;;8.27;;
61806;SDS011;47726;52.766;6.606;2023-04-24T10:27:57;17.15;;;8.57;;
61806;SDS011;47726;52.766;6.606;2023-04-24T10:30:25;16.30;;;7.68;;
61806;SDS011;47726;52.766;6.606;2023-04-24T10:32:52;18.23;;;7.55;;
61806;SDS011;47726;52.766;6.606;2023-04-24T10:35:17;15.48;;;6.93;;
61806;SDS011;47726;52.766;6.606;2023-04-24T10:37:49;11.23;;;6.07;;
61806;SDS011;47726;52.766;6.606;2023-04-24T10:40:19;15.10;;;6.10;;
61806;SDS011;47726;52.766;6.606;2023-04-24T10:42:52;14.55;;;5.60;;
61806;SDS011;47726;52.766;6.606;2023-04-24T10:45:21;13.18;;;5.18;;
61806;SDS011;47726;52.766;6.606;2023-04-24T10:47:57;12.60;;;5.13;;
61806;SDS011;47726;52.766;6.606;2023-04-24T10:50:26;10.35;;;4.68;;
61806;SDS011;47726;52.766;6.606;2023-04-24T10:52:53;15.10;;;4.85;;
61806;SDS011;47726;52.766;6.606;2023-04-24T10:55:49;14.30;;;4.90;;
61806;SDS011;47726;52.766;6.606;2023-04-24T10:58:16;13.07;;;4.45;;
61806;SDS011;47726;52.766;6.606;2023-04-24T11:00:54;12.45;;;4.38;;
61806;SDS011;47726;52.766;6.606;2023-04-24T11:03:31;11.90;;;4.63;;
61806;SDS011;47726;52.766;6.606;2023-04-24T11:08:43;10.90;;;4.28;;
61806;SDS011;47726;52.766;6.606;2023-04-24T11:11:13;12.00;;;4.13;;
61806;SDS011;47726;52.766;6.606;2023-04-24T11:16:32;12.18;;;3.97;;
61806;SDS011;47726;52.766;6.606;2023-04-24T11:19:05;15.43;;;4.40;;
61806;SDS011;47726;52.766;6.606;2023-04-24T11:22:16;11.32;;;3.65;;
61806;SDS011;47726;52.766;6.606;2023-04-24T11:29:48;8.55;;;3.75;;
61806;SDS011;47726;52.766;6.606;2023-04-24T11:32:26;10.10;;;3.70;;
61806;SDS011;47726;52.766;6.606;2023-04-24T11:34:58;16.67;;;3.80;;
61806;SDS011;47726;52.766;6.606;2023-04-24T11:37:33;12.52;;;3.83;;
61806;SDS011;47726;52.766;6.606;2023-04-24T11:40:04;13.90;;;4.00;;
61806;SDS011;47726;52.766;6.606;2023-04-24T11:42:35;12.77;;;4.32;;
61806;SDS011;47726;52.766;6.606;2023-04-24T11:45:06;18.10;;;5.30;;
61806;SDS011;47726;52.766;6.606;2023-04-24T11:47:32;15.80;;;5.10;;
61806;SDS011;47726;52.766;6.606;2023-04-24T11:49:58;12.35;;;3.88;;
61806;SDS011;47726;52.766;6.606;2023-04-24T11:52:25;10.82;;;3.63;;
61806;SDS011;47726;52.766;6.606;2023-04-24T11:54:52;12.00;;;3.95;;
61806;SDS011;47726;52.766;6.606;2023-04-24T11:57:21;10.60;;;3.20;;
61806;SDS011;47726;52.766;6.606;2023-04-24T11:59:51;10.07;;;3.22;;
61806;SDS011;47726;52.766;6.606;2023-04-24T12:02:20;12.30;;;3.03;;
61806;SDS011;47726;52.766;6.606;2023-04-24T12:04:50;7.32;;;2.95;;
61806;SDS011;47726;52.766;6.606;2023-04-24T12:07:17;9.38;;;3.00;;
61806;SDS011;47726;52.766;6.606;2023-04-24T12:09:43;9.13;;;2.85;;
61806;SDS011;47726;52.766;6.606;2023-04-24T12:12:11;13.57;;;3.47;;
61806;SDS011;47726;52.766;6.606;2023-04-24T12:14:48;6.53;;;2.80;;
61806;SDS011;47726;52.766;6.606;2023-04-24T12:17:15;7.80;;;3.10;;
61806;SDS011;47726;52.766;6.606;2023-04-24T12:19:45;9.38;;;2.90;;
61806;SDS011;47726;52.766;6.606;2023-04-24T12:22:12;10.18;;;3.30;;
61806;SDS011;47726;52.766;6.606;2023-04-24T12:24:55;12.85;;;3.28;;
61806;SDS011;47726;52.766;6.606;2023-04-24T12:27:22;8.55;;;2.97;;
61806;SDS011;47726;52.766;6.606;2023-04-24T12:29:51;9.48;;;2.90;;
61806;SDS011;47726;52.766;6.606;2023-04-24T12:32:27;12.70;;;3.10;;
61806;SDS011;47726;52.766;6.606;2023-04-24T12:34:53;8.27;;;2.90;;
61806;SDS011;47726;52.766;6.606;2023-04-24T12:37:19;8.93;;;3.03;;
61806;SDS011;47726;52.766;6.606;2023-04-24T12:40:04;7.00;;;2.58;;
61806;SDS011;47726;52.766;6.606;2023-04-24T12:42:32;7.63;;;2.47;;
61806;SDS011;47726;52.766;6.606;2023-04-24T12:45:05;7.78;;;2.50;;
61806;SDS011;47726;52.766;6.606;2023-04-24T12:47:32;7.90;;;2.72;;
61806;SDS011;47726;52.766;6.606;2023-04-24T12:49:58;6.05;;;3.42;;
61806;SDS011;47726;52.766;6.606;2023-04-24T12:52:25;7.03;;;3.22;;
61806;SDS011;47726;52.766;6.606;2023-04-24T12:54:56;3.85;;;2.10;;
61806;SDS011;47726;52.766;6.606;2023-04-24T12:57:23;3.90;;;2.00;;
61806;SDS011;47726;52.766;6.606;2023-04-24T12:59:49;4.97;;;1.80;;
61806;SDS011;47726;52.766;6.606;2023-04-24T13:02:15;3.17;;;1.70;;
61806;SDS011;47726;52.766;6.606;2023-04-24T13:04:45;6.18;;;2.10;;
61806;SDS011;47726;52.766;6.606;2023-04-24T13:07:11;3.53;;;1.80;;
61806;SDS011;47726;52.766;6.606;2023-04-24T13:09:38;5.93;;;1.80;;
61806;SDS011;47726;52.766;6.606;2023-04-24T13:12:04;9.77;;;2.22;;
61806;SDS011;47726;52.766;6.606;2023-04-24T13:14:30;6.35;;;2.13;;
61806;SDS011;47726;52.766;6.606;2023-04-24T13:16:56;4.85;;;2.05;;
61806;SDS011;47726;52.766;6.606;2023-04-24T13:19:24;4.93;;;2.10;;
61806;SDS011;47726;52.766;6.606;2023-04-24T13:21:53;7.30;;;2.00;;
61806;SDS011;47726;52.766;6.606;2023-04-24T13:24:20;6.25;;;2.10;;
61806;SDS011;47726;52.766;6.606;2023-04-24T13:26:49;7.63;;;2.20;;
61806;SDS011;47726;52.766;6.606;2023-04-24T13:29:15;9.52;;;2.95;;
61806;SDS011;47726;52.766;6.606;2023-04-24T13:31:41;8.70;;;2.35;;
61806;SDS011;47726;52.766;6.606;2023-04-24T13:34:06;10.38;;;2.40;;
61806;SDS011;47726;52.766;6.606;2023-04-24T13:36:32;8.10;;;2.20;;
61806;SDS011;47726;52.766;6.606;2023-04-24T13:38:58;7.00;;;2.22;;
61806;SDS011;47726;52.766;6.606;2023-04-24T13:41:23;8.68;;;2.30;;
61806;SDS011;47726;52.766;6.606;2023-04-24T13:43:49;9.65;;;2.40;;
61806;SDS011;47726;52.766;6.606;2023-04-24T13:46:15;9.50;;;2.50;;
61806;SDS011;47726;52.766;6.606;2023-04-24T13:48:40;9.48;;;2.38;;
61806;SDS011;47726;52.766;6.606;2023-04-24T13:51:06;6.03;;;2.25;;
61806;SDS011;47726;52.766;6.606;2023-04-24T13:53:32;7.40;;;2.20;;
61806;SDS011;47726;52.766;6.606;2023-04-24T13:56:01;6.43;;;2.25;;
61806;SDS011;47726;52.766;6.606;2023-04-24T13:58:27;6.22;;;2.38;;
61806;SDS011;47726;52.766;6.606;2023-04-24T14:00:52;6.43;;;2.45;;
61806;SDS011;47726;52.766;6.606;2023-04-24T14:03:18;6.65;;;2.30;;
61806;SDS011;47726;52.766;6.606;2023-04-24T14:05:43;9.25;;;2.70;;
61806;SDS011;47726;52.766;6.606;2023-04-24T14:08:09;6.63;;;2.05;;
61806;SDS011;47726;52.766;6.606;2023-04-24T14:10:35;6.72;;;2.10;;
61806;SDS011;47726;52.766;6.606;2023-04-24T14:13:00;6.38;;;2.10;;
61806;SDS011;47726;52.766;6.606;2023-04-24T14:15:26;6.90;;;2.63;;
61806;SDS011;47726;52.766;6.606;2023-04-24T14:17:51;8.13;;;2.53;;
61806;SDS011;47726;52.766;6.606;2023-04-24T14:20:17;8.57;;;2.78;;
61806;SDS011;47726;52.766;6.606;2023-04-24T14:22:43;11.10;;;2.88;;
61806;SDS011;47726;52.766;6.606;2023-04-24T14:25:08;41.75;;;4.95;;
61806;SDS011;47726;52.766;6.606;2023-04-24T14:27:34;19.48;;;3.10;;
61806;SDS011;47726;52.766;6.606;2023-04-24T14:30:00;10.85;;;2.60;;
61806;SDS011;47726;52.766;6.606;2023-04-24T14:32:26;11.43;;;2.67;;
61806;SDS011;47726;52.766;6.606;2023-04-24T14:34:52;11.02;;;3.00;;
61806;SDS011;47726;52.766;6.606;2023-04-24T14:37:18;13.15;;;3.20;;
61806;SDS011;47726;52.766;6.606;2023-04-24T14:39:44;10.02;;;2.92;;
61806;SDS011;47726;52.766;6.606;2023-04-24T14:42:10;12.15;;;3.03;;
61806;SDS011;47726;52.766;6.606;2023-04-24T14:44:35;16.08;;;3.20;;
61806;SDS011;47726;52.766;6.606;2023-04-24T14:47:01;10.45;;;3.38;;
61806;SDS011;47726;52.766;6.606;2023-04-24T14:49:27;12.55;;;3.70;;
61806;SDS011;47726;52.766;6.606;2023-04-24T14:51:52;13.18;;;3.67;;
61806;SDS011;47726;52.766;6.606;2023-04-24T14:54:18;11.15;;;3.58;;
61806;SDS011;47726;52.766;6.606;2023-04-24T14:56:44;11.88;;;3.58;;